Terminal Aerodrome Forecast
Issued by NWS Jackson, MS

Home | Current Version | Previous Version | Text Only | Print | Product List | Glossary On
Versions: 1 2 3 4 5 6 7 8 9 10 11 12
000
FTUS44 KMEG 261136
TAFTUP
TAF
KTUP 261136Z 2612/2712 20006KT P6SM SCT015 BKN050
      TEMPO 2612/2614 BKN015
     FM261400 20006KT P6SM OVC015
     FM261700 21008KT P6SM SCT025 BKN040
     FM262000 21009KT P6SM SCT040 BKN250
     FM270000 19003KT P6SM SCT040 BKN250=

USA.gov is the U.S. government's official web portal to all federal, state and local government web resources and services.